Madrid, Spain
Current Conditions -  °F | °C
As of 10:00 PM on Tuesday 21 Oct 2014 (Local Time) from LEVS Reporting Station
Clear Clear  
Wind Chill: 68°   Ceiling: Unl
Heat Index: 68°   Visibility: 6mi
Dew Point: 54°   Wind: 9mph
Humidity: 60%   Direction: 270°W
Pressure: 30.36"   Gusts: NA
Location:  40.42°N, 3.7°W
Report Text: LEVS 212000Z 27008KT CAVOK 20/12 Q1028
Loading
Personal Weather Stations






























Interactive Weather Map
Tropical Storm Tracking
New forecast layout! Learn more

10-Day Weather Forecast

Advertisements
Track Severe Weather on mobile